Time;durP1;ratioP1;P1;durP2;ratioP2;P2;SDS_P1;SDS_P2;PMS_P1;PMS_P2;Temp;Humidity;BMP_temperature;BMP_pressure;BME280_temperature;BME280_humidity;BME280_pressure;Samples;Min_cycle;Max_cycle;Signal;HPM_P1;HPM_P2
2022/09/14 00:00:48;;;;;;;5.03;3.90;;;;;;;21.17;72.63;99358.06;5032568;28;20192;-69
2022/09/14 00:03:14;;;;;;;5.20;3.80;;;;;;;21.18;73.33;99356.81;5032487;28;20203;-69
2022/09/14 00:05:39;;;;;;;8.07;4.80;;;;;;;21.17;72.56;99340.84;5032083;28;20160;-69
2022/09/14 00:08:05;;;;;;;6.63;4.80;;;;;;;21.17;72.72;99337.97;5015996;28;20298;-69
2022/09/14 00:10:30;;;;;;;5.50;4.10;;;;;;;21.17;72.24;99340.84;5015678;28;20202;-69
2022/09/14 00:12:56;;;;;;;9.57;4.53;;;;;;;21.18;72.35;99336.72;5032638;28;20529;-69
2022/09/14 00:15:21;;;;;;;6.30;4.23;;;;;;;21.17;72.39;99329.34;5050031;28;20168;-69
2022/09/14 00:17:47;;;;;;;6.60;4.47;;;;;;;21.18;72.50;99324.44;5032136;28;20422;-68
2022/09/14 00:20:12;;;;;;;7.53;4.07;;;;;;;21.19;72.98;99326.06;5049990;28;20168;-69
2022/09/14 00:22:38;;;;;;;8.53;4.93;;;;;;;21.18;72.57;99333.84;5050086;28;20223;-69
2022/09/14 00:25:03;;;;;;;5.57;3.90;;;;;;;21.17;72.27;99329.34;5031874;28;20214;-68
2022/09/14 00:27:29;;;;;;;6.90;4.00;;;;;;;21.18;72.47;99345.34;5032166;28;20513;-69
2022/09/14 00:29:54;;;;;;;7.30;4.50;;;;;;;21.17;72.16;99346.59;5047885;28;20221;-69
2022/09/14 00:32:20;;;;;;;7.50;4.53;;;;;;;21.17;72.17;99334.31;5029020;28;20168;-68
2022/09/14 00:34:45;;;;;;;9.70;4.87;;;;;;;21.18;72.59;99341.66;5046491;28;20183;-69
2022/09/14 00:37:10;;;;;;;14.23;4.60;;;;;;;21.17;72.71;99337.97;5028756;28;20184;-68
2022/09/14 00:39:36;;;;;;;7.20;5.17;;;;;;;21.17;72.99;99358.06;5042261;28;20195;-68
2022/09/14 00:42:03;;;;;;;9.40;4.80;;;;;;;21.16;72.62;99359.31;5028489;28;20217;-68
2022/09/14 00:44:28;;;;;;;7.40;5.00;;;;;;;21.16;72.83;99347.00;5026429;28;20571;-69
2022/09/14 00:46:58;;;;;;;11.30;5.00;;;;;;;21.17;73.24;99346.59;5048446;28;20422;-69
2022/09/14 00:49:37;;;;;;;9.40;5.27;;;;;;;21.16;73.45;99350.69;5021690;28;20274;-68
2022/09/14 00:52:29;;;;;;;9.13;4.93;;;;;;;21.16;73.26;99362.19;5013990;28;20985;-68
2022/09/14 00:54:56;;;;;;;6.93;4.93;;;;;;;21.17;73.90;99357.25;5027389;28;20430;-68
2022/09/14 00:57:22;;;;;;;8.63;4.53;;;;;;;21.16;73.82;99367.91;5014597;28;20504;-69
2022/09/14 00:59:49;;;;;;;8.03;5.23;;;;;;;21.16;73.61;99385.16;5014241;28;20445;-69
2022/09/14 01:02:14;;;;;;;12.13;5.33;;;;;;;21.17;72.92;99385.97;5011414;28;20470;-69
2022/09/14 01:04:40;;;;;;;10.57;6.23;;;;;;;21.16;73.81;99382.28;5011957;28;20423;-69
2022/09/14 01:07:05;;;;;;;14.73;5.10;;;;;;;21.16;73.42;99393.75;5011709;28;20198;-69
2022/09/14 01:09:44;;;;;;;8.27;5.10;;;;;;;21.16;73.93;99410.97;5029924;28;20187;-69
2022/09/14 01:12:19;;;;;;;5.80;5.10;;;;;;;21.17;73.77;99429.03;5011025;28;20165;-69
2022/09/14 01:15:04;;;;;;;9.53;5.13;;;;;;;21.17;74.08;99437.66;5010499;28;20430;-69
2022/09/14 01:17:45;;;;;;;7.90;4.97;;;;;;;21.17;73.69;99435.56;5010599;28;20423;-68
2022/09/14 01:20:28;;;;;;;11.70;5.13;;;;;;;21.15;73.24;99412.22;5030257;28;20917;-68
2022/09/14 01:23:15;;;;;;;12.13;5.70;;;;;;;21.15;73.96;99412.22;5029996;28;20478;-68
2022/09/14 01:26:21;;;;;;;11.87;5.40;;;;;;;20.94;76.53;99409.50;5028552;28;20417;-69
2022/09/14 01:28:59;;;;;;;13.73;5.93;;;;;;;21.06;74.94;99417.59;4997452;28;20445;-69
2022/09/14 01:31:31;;;;;;;12.70;7.20;;;;;;;21.07;76.43;99404.09;5015248;28;20493;-68
2022/09/14 01:34:11;;;;;;;14.23;5.90;;;;;;;21.05;76.58;99409.41;5013757;28;20415;-68
2022/09/14 01:36:38;;;;;;;14.83;7.47;;;;;;;21.05;77.17;99413.09;5013829;28;20494;-68
2022/09/14 01:39:03;;;;;;;11.13;7.30;;;;;;;21.07;76.93;99415.56;4983796;28;20430;-68
2022/09/14 01:41:30;;;;;;;15.33;7.57;;;;;;;21.08;76.38;99411.44;5034602;28;20528;-68
2022/09/14 01:44:07;;;;;;;10.27;7.10;;;;;;;21.10;76.73;99411.84;5036468;28;20213;-68
2022/09/14 01:46:38;;;;;;;13.10;7.50;;;;;;;21.11;76.04;99405.69;5053380;28;20416;-68
2022/09/14 01:49:14;;;;;;;9.60;6.47;;;;;;;21.12;76.43;99410.19;5030418;28;20456;-68
2022/09/14 01:51:44;;;;;;;8.90;6.23;;;;;;;21.13;75.50;99396.66;5005361;28;20409;-68
2022/09/14 01:54:29;;;;;;;10.10;6.50;;;;;;;21.13;75.91;99403.19;5023221;28;20474;-68
2022/09/14 01:57:02;;;;;;;14.10;7.07;;;;;;;21.13;75.58;99371.63;5042879;28;20448;-68
2022/09/14 01:59:35;;;;;;;10.33;6.60;;;;;;;21.14;75.54;99381.88;5025229;28;20410;-68
2022/09/14 02:02:10;;;;;;;8.90;5.93;;;;;;;21.14;75.05;99373.28;5012726;28;20469;-68
2022/09/14 02:04:35;;;;;;;10.13;6.27;;;;;;;21.14;75.08;99370.41;5057417;28;21285;-68
2022/09/14 02:07:01;;;;;;;13.23;6.57;;;;;;;21.15;75.41;99366.28;5057247;28;20414;-68
2022/09/14 02:09:27;;;;;;;12.90;7.03;;;;;;;21.15;75.43;99356.84;5055972;28;20178;-68
2022/09/14 02:11:53;;;;;;;11.27;6.40;;;;;;;21.15;75.03;99349.06;5055908;28;20853;-68
2022/09/14 02:14:20;;;;;;;10.80;6.53;;;;;;;21.15;74.59;99349.06;5056490;28;20167;-68
2022/09/14 02:16:45;;;;;;;11.77;6.57;;;;;;;21.14;74.98;99344.56;5061544;28;20457;-68
2022/09/14 02:19:12;;;;;;;9.53;5.90;;;;;;;21.14;74.96;99344.56;5053083;28;20430;-67
2022/09/14 02:21:37;;;;;;;13.33;6.80;;;;;;;21.15;75.22;99339.63;5061864;28;20199;-68
2022/09/14 02:24:03;;;;;;;14.07;6.40;;;;;;;21.15;74.46;99343.34;5027424;28;20481;-67
2022/09/14 02:26:28;;;;;;;11.50;6.23;;;;;;;21.15;74.89;99345.38;5043457;28;20184;-68
2022/09/14 02:28:55;;;;;;;14.67;7.80;;;;;;;21.13;75.53;99333.50;5043155;28;20175;-68
2022/09/14 02:31:26;;;;;;;11.67;7.17;;;;;;;21.13;74.89;99319.16;5042886;28;20228;-68
2022/09/14 02:34:04;;;;;;;8.83;5.70;;;;;;;21.13;75.34;99316.28;5042297;28;20430;-68
2022/09/14 02:36:47;;;;;;;14.70;7.13;;;;;;;21.13;75.29;99317.09;5041252;28;20442;-68
2022/09/14 02:39:34;;;;;;;11.97;6.93;;;;;;;21.12;74.87;99315.47;5043413;28;20436;-67
2022/09/14 02:42:45;;;;;;;13.20;7.10;;;;;;;21.14;74.98;99313.00;5059203;28;20839;-68
2022/09/14 02:45:10;;;;;;;18.90;7.50;;;;;;;21.15;75.03;99302.31;5036244;28;20887;-68
2022/09/14 02:47:49;;;;;;;12.23;7.83;;;;;;;21.15;74.62;99297.41;5040195;28;20456;-67
2022/09/14 02:50:17;;;;;;;9.67;6.93;;;;;;;21.15;74.67;99291.66;5021723;28;20172;-67
2022/09/14 02:52:52;;;;;;;10.20;5.90;;;;;;;21.15;74.75;99291.66;5037908;28;20450;-67
2022/09/14 02:55:19;;;;;;;14.80;7.70;;;;;;;21.15;74.97;99279.34;5004004;28;20433;-67
2022/09/14 02:58:03;;;;;;;11.17;7.30;;;;;;;21.14;74.96;99278.56;5016352;28;20422;-67
2022/09/14 03:00:30;;;;;;;10.83;6.67;;;;;;;21.13;74.91;99265.41;5038744;28;20965;-67
2022/09/14 03:02:55;;;;;;;10.23;6.70;;;;;;;21.13;74.77;99276.09;5021771;28;20462;-67
2022/09/14 03:05:21;;;;;;;10.20;6.60;;;;;;;21.13;74.88;99282.66;5038235;28;20430;-67
2022/09/14 03:07:46;;;;;;;10.40;7.37;;;;;;;21.13;74.89;99265.41;5037383;28;20172;-67
2022/09/14 03:10:12;;;;;;;12.03;7.47;;;;;;;21.13;74.88;99258.88;5037798;28;20523;-67
2022/09/14 03:12:37;;;;;;;11.20;7.40;;;;;;;21.13;74.62;99258.88;5055158;28;20156;-67
2022/09/14 03:15:04;;;;;;;11.37;6.23;;;;;;;21.13;74.60;99247.41;5036862;28;20206;-67
2022/09/14 03:17:29;;;;;;;10.43;6.70;;;;;;;21.12;75.01;99240.84;5036210;28;20557;-67
2022/09/14 03:19:55;;;;;;;14.10;7.00;;;;;;;21.13;75.17;99241.66;5054588;28;20426;-67
2022/09/14 03:22:20;;;;;;;10.60;6.97;;;;;;;21.14;75.09;99229.75;5050652;28;20227;-67
2022/09/14 03:24:46;;;;;;;12.10;7.30;;;;;;;21.13;74.95;99224.44;5054270;28;20186;-67
2022/09/14 03:27:12;;;;;;;12.47;6.63;;;;;;;21.12;75.51;99220.75;5053856;28;20168;-67
2022/09/14 03:29:37;;;;;;;12.17;7.93;;;;;;;21.10;75.43;99228.97;5035825;28;20160;-67
2022/09/14 03:32:02;;;;;;;10.80;7.80;;;;;;;21.12;75.42;99234.28;5054033;28;20164;-67
2022/09/14 03:34:28;;;;;;;13.80;8.53;;;;;;;21.09;76.39;99235.97;5035862;28;20217;-67
2022/09/14 03:36:53;;;;;;;11.60;7.17;;;;;;;21.09;76.29;99235.13;5002583;28;20176;-67
2022/09/14 03:39:19;;;;;;;14.90;8.50;;;;;;;21.10;75.76;99243.31;5053281;28;20191;-67
2022/09/14 03:41:44;;;;;;;16.67;8.87;;;;;;;21.09;76.06;99244.56;5053257;28;20253;-67
2022/09/14 03:44:10;;;;;;;11.70;8.63;;;;;;;21.08;76.28;99254.41;5046076;28;20168;-67
2022/09/14 03:46:35;;;;;;;10.83;8.03;;;;;;;21.08;76.37;99263.00;5035421;28;20160;-67
2022/09/14 03:49:00;;;;;;;14.87;10.00;;;;;;;20.96;78.06;99259.84;5045784;28;20184;-67
2022/09/14 03:51:26;;;;;;;14.13;8.10;;;;;;;20.93;77.89;99272.16;5036507;28;20160;-67
2022/09/14 03:53:52;;;;;;;12.10;8.40;;;;;;;20.95;78.27;99279.13;5053130;28;20184;-67
2022/09/14 03:56:18;;;;;;;10.53;7.93;;;;;;;21.00;77.40;99287.28;5051505;28;20406;-67
2022/09/14 03:58:44;;;;;;;13.77;8.70;;;;;;;21.00;77.57;99286.44;5018717;28;20662;-68
2022/09/14 04:01:13;;;;;;;17.07;8.87;;;;;;;21.00;77.40;99287.28;5035888;28;20438;-67
2022/09/14 04:03:38;;;;;;;14.77;9.70;;;;;;;21.03;77.82;99277.00;5018245;28;20563;-68
2022/09/14 04:06:04;;;;;;;15.90;9.83;;;;;;;21.04;77.74;99278.63;5034856;28;20973;-67
2022/09/14 04:08:31;;;;;;;12.50;8.80;;;;;;;21.03;77.25;99271.28;5027897;28;20187;-67
2022/09/14 04:10:56;;;;;;;14.00;9.67;;;;;;;21.05;77.44;99274.53;5014094;28;20230;-68
2022/09/14 04:13:22;;;;;;;13.33;10.10;;;;;;;21.02;77.82;99279.06;5032620;28;20423;-67
2022/09/14 04:16:00;;;;;;;13.60;9.10;;;;;;;21.05;77.29;99274.53;5032429;28;20184;-68
2022/09/14 04:18:26;;;;;;;16.43;9.63;;;;;;;21.04;77.13;99267.97;5000442;28;20248;-68
2022/09/14 04:20:59;;;;;;;12.70;8.90;;;;;;;21.05;76.80;99269.59;5032578;28;20518;-67
2022/09/14 04:23:24;;;;;;;15.17;9.40;;;;;;;21.07;76.69;99277.81;5000220;28;20220;-67
2022/09/14 04:25:50;;;;;;;13.47;9.83;;;;;;;21.08;76.67;99273.69;5016320;28;20784;-68
2022/09/14 04:28:16;;;;;;;11.20;8.23;;;;;;;21.08;77.34;99268.75;5016736;28;20195;-68
2022/09/14 04:30:41;;;;;;;12.63;7.60;;;;;;;21.09;76.69;99276.13;5017115;28;20423;-68
2022/09/14 04:33:07;;;;;;;13.07;7.77;;;;;;;21.10;76.77;99276.94;5023551;28;20188;-67
2022/09/14 04:35:32;;;;;;;12.03;7.97;;;;;;;21.11;76.48;99284.31;5033160;28;20228;-68
2022/09/14 04:37:58;;;;;;;15.50;8.00;;;;;;;21.11;76.38;99284.31;5034564;28;20283;-68
2022/09/14 04:40:23;;;;;;;11.23;8.50;;;;;;;21.10;76.66;99289.25;5035415;28;20180;-68
2022/09/14 04:42:48;;;;;;;11.50;7.43;;;;;;;21.10;76.43;99297.03;5033262;28;20669;-67
2022/09/14 04:45:14;;;;;;;11.93;6.87;;;;;;;21.11;76.59;99293.75;5036655;28;20182;-68
2022/09/14 04:47:39;;;;;;;9.00;6.53;;;;;;;21.11;76.35;99308.09;5053566;28;20546;-68
2022/09/14 04:50:05;;;;;;;11.47;8.07;;;;;;;21.10;76.30;99295.00;5055017;28;20689;-67
2022/09/14 04:52:30;;;;;;;14.23;8.40;;;;;;;21.10;75.77;99300.72;5056036;28;20172;-68
2022/09/14 04:54:56;;;;;;;12.70;9.27;;;;;;;21.09;76.79;99307.72;5055825;28;20164;-68
2022/09/14 04:57:21;;;;;;;14.53;9.60;;;;;;;21.07;76.66;99312.25;5055610;28;20181;-68
2022/09/14 04:59:47;;;;;;;14.20;10.40;;;;;;;21.07;76.85;99318.78;5037760;28;20167;-68
2022/09/14 05:02:12;;;;;;;16.53;10.07;;;;;;;21.04;77.17;99302.41;5055607;28;20215;-68
2022/09/14 05:04:37;;;;;;;13.23;9.37;;;;;;;21.05;77.34;99314.69;5037116;28;20180;-68
2022/09/14 05:07:03;;;;;;;15.63;10.60;;;;;;;21.04;77.62;99313.91;5055167;28;20175;-68
2022/09/14 05:09:28;;;;;;;15.03;9.50;;;;;;;21.06;77.24;99311.41;5038037;28;20156;-68
2022/09/14 05:11:54;;;;;;;16.23;8.83;;;;;;;21.06;76.48;99299.09;5055592;28;20180;-68
2022/09/14 05:14:19;;;;;;;13.43;8.70;;;;;;;21.08;76.52;99290.91;5055118;28;20168;-68
2022/09/14 05:16:46;;;;;;;13.57;8.47;;;;;;;21.08;76.06;99288.84;5055882;28;20776;-68
2022/09/14 05:19:14;;;;;;;17.40;10.20;;;;;;;21.08;76.79;99288.84;5021116;28;20184;-68
2022/09/14 05:21:39;;;;;;;15.40;8.70;;;;;;;21.08;76.48;99288.84;5054602;28;20446;-68
2022/09/14 05:24:11;;;;;;;16.07;10.57;;;;;;;21.07;76.14;99277.81;5051148;28;20466;-68
2022/09/14 05:26:36;;;;;;;14.47;9.20;;;;;;;21.07;76.86;99287.22;5020700;28;20194;-68
2022/09/14 05:29:02;;;;;;;22.87;9.90;;;;;;;21.07;76.23;99284.34;5036064;28;20419;-68
2022/09/14 05:31:28;;;;;;;15.83;10.10;;;;;;;21.07;76.60;99281.47;5036460;28;20161;-68
2022/09/14 05:33:57;;;;;;;14.33;10.00;;;;;;;21.06;76.93;99287.63;5036611;28;20180;-68
2022/09/14 05:36:22;;;;;;;19.33;10.30;;;;;;;21.06;76.17;99282.72;5055683;28;20176;-68
2022/09/14 05:38:47;;;;;;;15.47;10.20;;;;;;;21.06;77.06;99282.72;5037863;28;20421;-68
2022/09/14 05:41:13;;;;;;;18.83;11.27;;;;;;;21.06;76.55;99282.72;5016917;28;20222;-68
2022/09/14 05:43:39;;;;;;;15.77;10.23;;;;;;;21.07;76.29;99277.81;5023750;28;20182;-68
2022/09/14 05:46:16;;;;;;;15.10;10.20;;;;;;;21.08;76.51;99282.28;5038088;28;20513;-68
2022/09/14 05:48:42;;;;;;;13.93;9.87;;;;;;;21.06;76.85;99291.31;5050467;28;20254;-68
2022/09/14 05:51:10;;;;;;;18.90;11.13;;;;;;;21.06;76.88;99294.19;5053565;28;20465;-68
2022/09/14 05:53:35;;;;;;;16.50;10.73;;;;;;;21.07;76.12;99295.81;5054943;28;20207;-68
2022/09/14 05:56:09;;;;;;;15.50;10.70;;;;;;;21.07;76.11;99295.03;5056176;28;20418;-68
2022/09/14 05:58:36;;;;;;;14.03;8.70;;;;;;;21.07;75.97;99295.81;5033858;28;20168;-68
2022/09/14 06:01:17;;;;;;;14.43;9.30;;;;;;;21.09;76.29;99309.75;5034884;28;20439;-68
2022/09/14 06:03:43;;;;;;;12.23;8.70;;;;;;;21.09;76.02;99316.31;5034190;28;20768;-68
2022/09/14 06:06:10;;;;;;;14.57;9.53;;;;;;;21.09;76.33;99301.16;5035025;28;20419;-68
2022/09/14 06:08:36;;;;;;;16.50;9.50;;;;;;;21.09;76.64;99299.09;5034898;28;20419;-68
2022/09/14 06:11:06;;;;;;;16.57;10.40;;;;;;;21.08;76.39;99300.31;5035002;28;20429;-68
2022/09/14 06:13:31;;;;;;;18.20;11.20;;;;;;;21.07;76.93;99301.56;5019436;28;20200;-68
2022/09/14 06:16:18;;;;;;;13.60;10.07;;;;;;;21.08;75.84;99293.78;5019612;28;20413;-68
2022/09/14 06:18:44;;;;;;;15.33;9.27;;;;;;;21.08;75.69;99288.84;5026670;28;20241;-68
2022/09/14 06:21:13;;;;;;;15.17;9.80;;;;;;;21.08;77.02;99283.09;5039274;28;20407;-68
2022/09/14 06:23:39;;;;;;;14.63;10.33;;;;;;;21.08;75.88;99285.97;5022801;28;20482;-68
2022/09/14 06:26:05;;;;;;;14.57;9.13;;;;;;;21.08;76.66;99271.63;5039627;28;20410;-68
2022/09/14 06:28:30;;;;;;;11.50;7.57;;;;;;;21.09;76.47;99276.13;5060552;28;20608;-68
2022/09/14 06:30:56;;;;;;;13.70;8.00;;;;;;;21.10;76.24;99279.81;5026728;28;20176;-68
2022/09/14 06:33:21;;;;;;;11.63;8.07;;;;;;;21.11;76.67;99281.44;5027345;28;20158;-68
2022/09/14 06:36:08;;;;;;;15.90;7.70;;;;;;;21.10;76.14;99277.75;5043393;28;20242;-68
2022/09/14 06:38:34;;;;;;;12.73;8.27;;;;;;;21.11;75.98;99281.44;5055907;28;20171;-68
2022/09/14 06:41:01;;;;;;;13.10;7.70;;;;;;;21.10;75.99;99272.03;5043420;28;20447;-68
2022/09/14 06:43:28;;;;;;;15.00;7.60;;;;;;;21.12;76.08;99285.97;5043171;28;20231;-68
2022/09/14 06:45:57;;;;;;;13.47;7.60;;;;;;;21.10;76.26;99286.38;5043792;28;20824;-68
2022/09/14 06:48:23;;;;;;;13.83;7.30;;;;;;;21.12;75.97;99274.47;5058067;28;20468;-68
2022/09/14 06:50:48;;;;;;;12.67;8.10;;;;;;;21.11;76.21;99275.69;5058754;28;20949;-69
2022/09/14 06:53:14;;;;;;;8.73;7.07;;;;;;;21.12;75.90;99278.16;5061981;28;20164;-68
2022/09/14 06:55:39;;;;;;;12.83;7.50;;;;;;;21.12;76.03;99275.28;5043283;28;20545;-68
2022/09/14 06:58:06;;;;;;;10.33;6.90;;;;;;;21.13;76.07;99279.78;5042755;28;20536;-68
2022/09/14 07:00:31;;;;;;;13.23;7.10;;;;;;;21.15;76.07;99287.97;5061746;28;20192;-69
2022/09/14 07:02:57;;;;;;;9.80;7.10;;;;;;;21.14;76.22;99281.44;5062695;28;20464;-68
2022/09/14 07:05:22;;;;;;;10.63;6.60;;;;;;;21.14;75.35;99284.31;5062670;28;20187;-68
2022/09/14 07:07:52;;;;;;;12.10;7.60;;;;;;;21.13;75.93;99276.91;5045717;28;20630;-68
2022/09/14 07:10:17;;;;;;;9.57;6.57;;;;;;;21.14;76.29;99278.56;5062832;28;20175;-68
2022/09/14 07:12:43;;;;;;;12.33;7.60;;;;;;;21.13;76.27;99288.38;5062632;28;20426;-68
2022/09/14 07:15:08;;;;;;;13.37;9.03;;;;;;;21.14;75.80;99281.44;5045197;28;20196;-68
2022/09/14 07:17:35;;;;;;;12.40;8.03;;;;;;;21.13;76.60;99279.78;5028211;28;20270;-68
2022/09/14 07:20:05;;;;;;;10.30;7.57;;;;;;;21.13;76.56;99258.88;5057422;28;20258;-68
2022/09/14 07:22:34;;;;;;;11.80;7.23;;;;;;;21.13;76.64;99265.41;5024845;28;20479;-68
2022/09/14 07:24:59;;;;;;;12.73;8.23;;;;;;;21.14;76.96;99284.31;5008350;28;20426;-68
2022/09/14 07:27:25;;;;;;;12.13;8.60;;;;;;;21.11;78.08;99285.13;5023766;28;20430;-68
2022/09/14 07:29:50;;;;;;;13.33;9.10;;;;;;;21.10;77.69;99295.00;5023030;28;20161;-68
2022/09/14 07:32:16;;;;;;;12.97;8.47;;;;;;;21.13;76.53;99302.72;5008025;28;20164;-68
2022/09/14 07:34:41;;;;;;;15.77;9.67;;;;;;;21.05;79.04;99306.91;5041311;28;20156;-68
2022/09/14 07:37:06;;;;;;;11.47;7.73;;;;;;;21.09;78.17;99310.59;5051907;28;20567;-68
2022/09/14 07:39:32;;;;;;;12.20;9.47;;;;;;;21.11;78.30;99304.41;5061715;28;20172;-68
2022/09/14 07:41:57;;;;;;;13.23;8.37;;;;;;;21.12;78.08;99306.84;5061950;28;20555;-68
2022/09/14 07:44:23;;;;;;;12.33;7.40;;;;;;;21.11;79.07;99302.34;5061502;28;20175;-68
2022/09/14 07:46:48;;;;;;;13.87;9.00;;;;;;;21.15;78.37;99303.16;5043604;28;20175;-68
2022/09/14 07:49:14;;;;;;;12.57;8.00;;;;;;;21.16;78.86;99322.00;5051723;28;20172;-68
2022/09/14 07:51:40;;;;;;;15.80;8.20;;;;;;;21.18;80.00;99325.25;5044717;28;20225;-68
2022/09/14 07:54:06;;;;;;;12.10;8.57;;;;;;;21.15;83.08;99326.09;5044595;28;20183;-68
2022/09/14 07:56:31;;;;;;;13.67;8.30;;;;;;;21.19;82.43;99334.69;5044619;28;20164;-68
2022/09/14 07:58:57;;;;;;;12.83;9.43;;;;;;;21.16;83.66;99333.47;5061764;28;20406;-68
2022/09/14 08:01:23;;;;;;;17.53;8.90;;;;;;;21.17;85.10;99337.19;5028825;28;20254;-68
2022/09/14 08:03:48;;;;;;;11.10;8.10;;;;;;;21.15;85.36;99337.59;5027934;28;20479;-68
2022/09/14 08:06:19;;;;;;;13.93;7.70;;;;;;;21.19;85.95;99343.28;5062664;28;20206;-68
2022/09/14 08:08:46;;;;;;;10.13;7.00;;;;;;;21.17;86.64;99342.91;5062756;28;20187;-68
2022/09/14 08:11:38;;;;;;;11.10;7.23;;;;;;;21.19;84.83;99354.78;5044593;28;20407;-68
2022/09/14 08:14:08;;;;;;;10.23;6.37;;;;;;;21.19;87.20;99366.25;5023512;28;20533;-68
2022/09/14 08:16:34;;;;;;;15.80;6.50;;;;;;;21.17;85.92;99363.00;5044427;28;20433;-68
2022/09/14 08:19:01;;;;;;;10.40;6.30;;;;;;;21.18;86.19;99364.63;5043106;28;20435;-68
2022/09/14 08:21:27;;;;;;;11.90;5.73;;;;;;;21.18;87.12;99350.28;5009294;28;20231;-68
2022/09/14 08:23:53;;;;;;;11.20;5.63;;;;;;;21.13;90.36;99342.13;5025651;28;20470;-68
2022/09/14 08:26:20;;;;;;;7.00;5.43;;;;;;;21.16;90.73;99344.13;5039098;28;20470;-68
2022/09/14 08:28:46;;;;;;;10.90;5.63;;;;;;;21.14;91.46;99347.44;5047290;28;20317;-68
2022/09/14 08:31:22;;;;;;;10.87;6.07;;;;;;;21.17;90.68;99346.59;5024858;28;20434;-68
2022/09/14 08:33:56;;;;;;;9.00;5.43;;;;;;;21.23;90.88;99335.47;5059328;28;20178;-68
2022/09/14 08:36:22;;;;;;;8.30;5.37;;;;;;;21.26;91.23;99346.09;5060212;28;20401;-68
2022/09/14 08:38:47;;;;;;;10.83;5.50;;;;;;;21.27;90.67;99348.56;5043391;28;20422;-68
2022/09/14 08:41:36;;;;;;;7.37;5.43;;;;;;;21.32;89.90;99355.91;5060274;28;20398;-68
2022/09/14 08:44:19;;;;;;;6.77;5.27;;;;;;;21.36;90.82;99356.69;5058877;28;20182;-69
2022/09/14 08:47:01;;;;;;;8.33;4.87;;;;;;;21.42;90.38;99347.19;5060921;28;20406;-69
2022/09/14 08:49:35;;;;;;;10.73;5.57;;;;;;;21.43;91.21;99348.03;5028647;28;20469;-68
2022/09/14 08:52:01;;;;;;;7.43;4.90;;;;;;;21.44;90.52;99341.88;5039587;28;20430;-68
2022/09/14 08:54:26;;;;;;;8.27;5.73;;;;;;;21.45;89.76;99346.38;5005235;28;20427;-68
2022/09/14 08:57:00;;;;;;;8.93;5.50;;;;;;;21.51;90.12;99349.56;5024660;28;20535;-68
2022/09/14 08:59:35;;;;;;;8.80;4.77;;;;;;;21.56;92.33;99347.06;5000184;28;20579;-68
2022/09/14 09:02:42;;;;;;;7.57;4.93;;;;;;;21.58;91.76;99346.66;5019413;28;20503;-68
2022/09/14 09:05:17;;;;;;;5.50;4.50;;;;;;;21.64;90.41;99342.06;4982438;28;20441;-68
2022/09/14 09:08:07;;;;;;;6.40;4.60;;;;;;;21.67;91.20;99349.84;5037354;28;20470;-68
2022/09/14 09:10:33;;;;;;;7.70;4.50;;;;;;;21.67;91.55;99347.78;5020675;28;20532;-68
2022/09/14 09:12:59;;;;;;;10.97;5.20;;;;;;;21.67;91.04;99347.00;5017609;28;20411;-68
2022/09/14 09:15:31;;;;;;;12.50;4.97;;;;;;;21.69;91.25;99336.72;5018433;28;20176;-68
2022/09/14 09:18:07;;;;;;;8.50;4.73;;;;;;;21.76;91.79;99336.66;5020934;28;20545;-68
2022/09/14 09:20:34;;;;;;;11.27;5.70;;;;;;;21.73;91.34;99334.63;5036300;28;20419;-68
2022/09/14 09:23:00;;;;;;;5.30;4.67;;;;;;;21.86;91.89;99324.22;5022568;28;20841;-68
2022/09/14 09:25:32;;;;;;;11.30;4.70;;;;;;;21.83;89.94;99316.44;5059225;28;20474;-68
2022/09/14 09:28:02;;;;;;;7.47;5.40;;;;;;;21.81;91.56;99307.44;5024685;28;20163;-68
2022/09/14 09:30:28;;;;;;;5.80;4.87;;;;;;;21.89;89.57;99306.13;5023873;28;20461;-69
2022/09/14 09:32:53;;;;;;;7.73;4.47;;;;;;;21.85;90.00;99307.41;5019819;28;20411;-68
2022/09/14 09:35:21;;;;;;;7.97;4.40;;;;;;;21.86;90.14;99317.66;5002424;28;20426;-68
2022/09/14 09:37:46;;;;;;;12.13;4.90;;;;;;;21.87;90.40;99308.59;5003067;28;20184;-68
2022/09/14 09:40:19;;;;;;;7.80;5.30;;;;;;;21.89;90.11;99305.31;5039213;28;20414;-68
2022/09/14 09:43:04;;;;;;;8.90;4.43;;;;;;;21.93;89.27;99292.53;5019179;28;20201;-68
2022/09/14 09:45:56;;;;;;;9.17;4.50;;;;;;;21.91;88.77;99289.28;5018934;28;20414;-68
2022/09/14 09:48:30;;;;;;;6.30;4.00;;;;;;;22.03;87.99;99280.09;5032398;28;20850;-69
2022/09/14 09:51:03;;;;;;;15.20;5.00;;;;;;;22.06;88.51;99278.41;5045643;28;20414;-69
2022/09/14 09:53:29;;;;;;;8.33;4.57;;;;;;;22.02;88.29;99266.97;5046770;28;20402;-69
2022/09/14 09:55:54;;;;;;;11.17;5.70;;;;;;;22.13;88.24;99276.25;5045388;28;20472;-69
2022/09/14 09:58:21;;;;;;;12.53;5.40;;;;;;;22.19;87.67;99277.44;5013910;28;20221;-69
2022/09/14 10:01:01;;;;;;;7.77;4.80;;;;;;;22.17;87.30;99253.25;5066123;28;20196;-69
2022/09/14 10:03:29;;;;;;;8.57;4.80;;;;;;;22.16;88.05;99249.53;5037419;28;20517;-69
2022/09/14 10:06:06;;;;;;;7.67;4.73;;;;;;;22.15;87.74;99242.16;5050607;28;20429;-69
2022/09/14 10:08:33;;;;;;;7.90;4.27;;;;;;;22.15;88.31;99241.34;5032917;28;20410;-69
2022/09/14 10:11:01;;;;;;;11.73;5.10;;;;;;;22.20;88.74;99233.06;5034034;28;20390;-69
2022/09/14 10:13:31;;;;;;;14.47;4.63;;;;;;;22.11;87.73;99212.63;5036497;28;20402;-69
2022/09/14 10:16:16;;;;;;;6.80;4.50;;;;;;;22.19;88.31;99222.81;5052290;28;20892;-69
2022/09/14 10:18:43;;;;;;;10.57;4.70;;;;;;;22.21;87.59;99211.69;5051616;28;20498;-69
2022/09/14 10:21:09;;;;;;;12.90;4.90;;;;;;;22.22;86.75;99215.38;5053283;28;20508;-69
2022/09/14 10:23:36;;;;;;;6.57;4.10;;;;;;;22.25;86.95;99200.94;5070967;28;20477;-68
2022/09/14 10:26:10;;;;;;;7.37;4.50;;;;;;;22.23;86.89;99203.41;5049311;28;20187;-69
2022/09/14 10:28:36;;;;;;;8.07;5.00;;;;;;;22.20;87.44;99212.09;5067419;28;20445;-69
2022/09/14 10:31:07;;;;;;;8.53;4.60;;;;;;;22.26;86.77;99219.00;5034799;28;20426;-69
2022/09/14 10:33:34;;;;;;;8.73;4.60;;;;;;;22.22;87.17;99201.81;5051909;28;20164;-69
2022/09/14 10:36:05;;;;;;;8.20;5.03;;;;;;;22.31;87.10;99195.50;5026525;28;20419;-69
2022/09/14 10:38:53;;;;;;;12.37;4.77;;;;;;;22.31;85.26;99181.94;5067559;28;20423;-69
2022/09/14 10:41:31;;;;;;;10.90;4.40;;;;;;;22.37;85.69;99176.53;5065843;28;20403;-69
2022/09/14 10:44:40;;;;;;;8.20;4.83;;;;;;;22.44;85.43;99167.78;5064710;28;20460;-69
2022/09/14 10:47:20;;;;;;;6.43;4.07;;;;;;;22.39;85.24;99180.63;5064033;28;20410;-69
2022/09/14 10:49:58;;;;;;;11.70;4.90;;;;;;;22.34;85.60;99183.97;5051980;28;20436;-69
2022/09/14 10:52:45;;;;;;;12.33;5.10;;;;;;;22.32;84.91;99177.81;5064297;28;20433;-69
2022/09/14 10:55:47;;;;;;;5.63;4.13;;;;;;;22.32;84.81;99177.03;5046001;28;20572;-69
2022/09/14 10:58:29;;;;;;;9.00;4.30;;;;;;;22.39;85.11;99171.97;5065541;28;20410;-69
2022/09/14 11:01:13;;;;;;;4.83;3.90;;;;;;;22.40;85.09;99164.97;5064644;28;20454;-69
2022/09/14 11:03:45;;;;;;;6.40;4.23;;;;;;;22.41;85.67;99155.09;5057915;28;20462;-69
2022/09/14 11:06:35;;;;;;;6.90;4.30;;;;;;;22.48;84.84;99157.88;5045262;28;20415;-69
2022/09/14 11:09:19;;;;;;;9.10;4.73;;;;;;;22.45;84.59;99158.75;5031982;28;20435;-70
2022/09/14 11:11:57;;;;;;;9.80;4.60;;;;;;;22.64;84.29;99139.97;5031509;28;20441;-69
2022/09/14 11:14:26;;;;;;;10.37;4.23;;;;;;;22.81;83.64;99142.53;5030892;28;20422;-69
2022/09/14 11:17:30;;;;;;;8.73;3.90;;;;;;;22.67;83.82;99139.09;5049204;28;20445;-69
2022/09/14 11:20:04;;;;;;;13.30;4.23;;;;;;;22.53;84.52;99137.25;5067453;28;20805;-69
2022/09/14 11:23:00;;;;;;;10.17;3.80;;;;;;;22.61;84.13;99135.91;5049054;28;20524;-70
2022/09/14 11:25:35;;;;;;;9.73;3.93;;;;;;;22.58;84.00;99145.38;5018975;28;20391;-69
2022/09/14 11:28:08;;;;;;;6.83;4.00;;;;;;;22.61;84.14;99147.41;5017866;28;20529;-69
2022/09/14 11:30:37;;;;;;;9.53;4.17;;;;;;;22.65;83.76;99138.69;5034602;28;20407;-69
2022/09/14 11:33:24;;;;;;;6.33;4.20;;;;;;;22.57;85.05;99154.47;5034314;28;20626;-69
2022/09/14 11:35:53;;;;;;;10.33;4.20;;;;;;;22.47;82.89;99139.00;5018192;28;20415;-69
2022/09/14 11:38:20;;;;;;;6.97;4.73;;;;;;;22.49;84.64;99121.31;5056099;28;20422;-69
2022/09/14 11:40:54;;;;;;;7.50;4.37;;;;;;;22.49;84.65;99104.88;5069900;28;20419;-69